Time;durP1;ratioP1;P1;durP2;ratioP2;P2;SDS_P1;SDS_P2;PMS_P1;PMS_P2;Temp;Humidity;BMP_temperature;BMP_pressure;BME280_temperature;BME280_humidity;BME280_pressure;Samples;Min_cycle;Max_cycle;Signal;HPM_P1;HPM_P2
2023/10/20 09:07:33;;;;;;;15.33;12.10;;;;;;;13.18;100.00;95367.72;5170760;27;20585;-81
2023/10/20 09:10:01;;;;;;;15.57;12.37;;;;;;;13.73;100.00;95392.47;5135639;27;39572;-85
2023/10/20 09:13:10;;;;;;;14.37;11.37;;;;;;;14.09;100.00;95392.16;5171408;27;41992;-87
2023/10/20 09:15:39;;;;;;;12.70;10.87;;;;;;;14.40;100.00;95383.63;5135535;27;43618;-85
2023/10/20 09:18:08;;;;;;;11.63;10.43;;;;;;;14.54;100.00;95369.28;5136318;27;41263;-87
2023/10/20 09:20:35;;;;;;;11.93;10.23;;;;;;;14.87;100.00;95389.72;5135542;27;39774;-83
2023/10/20 09:23:21;;;;;;;11.17;9.47;;;;;;;15.16;100.00;95418.59;5136192;27;40788;-86
2023/10/20 09:28:34;;;;;;;10.97;9.53;;;;;;;15.46;100.00;95438.38;5134884;27;43385;-85
2023/10/20 09:31:17;;;;;;;10.67;9.20;;;;;;;15.28;100.00;95392.13;5135762;27;38719;-85
2023/10/20 09:33:45;;;;;;;11.33;9.57;;;;;;;15.58;100.00;95432.47;5135594;27;40919;-81
2023/10/20 09:36:13;;;;;;;10.30;8.93;;;;;;;15.54;100.00;95418.69;5135141;27;41980;-82
2023/10/20 09:38:57;;;;;;;10.47;9.37;;;;;;;15.65;100.00;95430.59;5135590;27;40866;-85
2023/10/20 09:41:27;;;;;;;11.23;9.53;;;;;;;15.73;100.00;95454.34;5134692;27;38849;-83
2023/10/20 09:44:05;;;;;;;10.03;9.03;;;;;;;15.80;100.00;95455.97;5154400;27;41605;-83
2023/10/20 09:46:43;;;;;;;9.30;8.13;;;;;;;15.92;100.00;95453.47;5134386;27;41889;-83
2023/10/20 09:49:24;;;;;;;9.40;7.93;;;;;;;16.00;100.00;95439.03;5148967;27;42183;-83
2023/10/20 09:51:59;;;;;;;9.90;8.37;;;;;;;16.20;100.00;95417.56;5136674;27;39322;-85
2023/10/20 09:54:31;;;;;;;13.17;10.10;;;;;;;16.30;100.00;95415.28;5122060;27;42217;-84
2023/10/20 09:57:17;;;;;;;12.60;9.00;;;;;;;16.51;100.00;95417.59;5133997;27;43745;-85
2023/10/20 09:59:45;;;;;;;10.93;9.03;;;;;;;16.58;99.79;95396.97;5151507;27;40742;-83
2023/10/20 10:02:15;;;;;;;12.57;8.83;;;;;;;16.73;98.35;95397.50;5134245;27;40114;-83
2023/10/20 10:04:47;;;;;;;10.27;8.33;;;;;;;16.79;99.03;95391.31;5133571;27;40816;-84
2023/10/20 10:07:27;;;;;;;9.83;8.87;;;;;;;16.75;99.52;95390.09;5133344;27;42046;-89
2023/10/20 10:10:45;;;;;;;11.27;8.53;;;;;;;16.78;99.07;95394.19;5133592;27;41597;-82
2023/10/20 10:13:20;;;;;;;9.87;8.87;;;;;;;16.88;97.97;95379.28;5135057;27;38918;-81
2023/10/20 10:16:34;;;;;;;11.83;9.30;;;;;;;16.80;97.43;95325.31;5132444;27;41633;-82
2023/10/20 10:19:12;;;;;;;9.47;8.37;;;;;;;16.46;96.28;95315.94;5120475;27;43301;-82
2023/10/20 10:21:47;;;;;;;10.10;7.83;;;;;;;16.55;96.75;95340.53;5138184;27;40946;-82
2023/10/20 10:24:34;;;;;;;11.40;9.10;;;;;;;16.68;95.64;95376.00;5135330;27;40005;-82
2023/10/20 10:27:06;;;;;;;10.90;8.73;;;;;;;16.72;96.34;95384.38;5135122;27;42223;-82
2023/10/20 10:35:51;;;;;;;8.60;7.70;;;;;;;17.48;94.05;95499.84;5127750;27;39867;-83
2023/10/20 10:38:45;;;;;;;8.27;7.40;;;;;;;17.54;93.47;95517.72;5120760;27;40916;-83
2023/10/20 10:41:24;;;;;;;8.50;7.30;;;;;;;17.62;92.89;95486.34;5119758;27;43105;-83
2023/10/20 10:43:54;;;;;;;8.77;7.80;;;;;;;17.91;92.04;95529.31;5118550;27;42261;-83
2023/10/20 10:46:34;;;;;;;8.97;7.60;;;;;;;18.06;91.04;95491.41;5119632;27;39033;-83
2023/10/20 10:49:07;;;;;;;9.03;8.00;;;;;;;18.23;89.77;95511.19;5119456;27;41078;-83
2023/10/20 10:51:43;;;;;;;9.53;8.40;;;;;;;18.27;89.37;95506.22;5136863;27;43002;-83
2023/10/20 10:54:10;;;;;;;7.73;6.93;;;;;;;18.33;89.58;95473.16;5136368;27;40881;-83
2023/10/20 10:56:38;;;;;;;8.13;7.00;;;;;;;18.49;87.39;95467.19;5136853;27;40166;-83
2023/10/20 10:59:05;;;;;;;9.10;7.53;;;;;;;18.61;87.17;95470.75;5155014;27;41713;-84
2023/10/20 11:01:35;;;;;;;9.60;8.47;;;;;;;18.81;85.43;95469.59;5155194;27;42970;-82
2023/10/20 11:04:02;;;;;;;8.53;7.10;;;;;;;18.88;84.20;95459.63;5135953;27;41023;-84
2023/10/20 11:06:32;;;;;;;10.10;8.93;;;;;;;19.09;84.82;95474.34;5154447;27;40753;-84
2023/10/20 11:09:00;;;;;;;9.40;8.43;;;;;;;18.89;82.92;95448.66;5162675;27;42574;-84
2023/10/20 11:11:27;;;;;;;9.10;8.20;;;;;;;18.98;82.60;95467.91;5126188;27;42948;-83
2023/10/20 11:13:57;;;;;;;8.13;7.10;;;;;;;18.87;83.07;95463.34;5134231;27;42290;-84
2023/10/20 11:16:24;;;;;;;9.40;8.40;;;;;;;18.75;83.43;95444.56;5135859;27;40787;-83
2023/10/20 11:18:53;;;;;;;9.00;6.93;;;;;;;18.60;83.04;95446.84;5103361;27;40724;-87
2023/10/20 11:21:21;;;;;;;10.13;8.13;;;;;;;18.66;82.69;95467.38;5120506;27;41909;-82
2023/10/20 11:23:50;;;;;;;9.27;8.33;;;;;;;18.64;81.54;95464.94;5120459;27;42492;-80
2023/10/20 11:26:18;;;;;;;8.47;7.53;;;;;;;18.80;80.84;95479.50;5137724;27;38854;-83
2023/10/20 11:28:48;;;;;;;8.27;7.47;;;;;;;18.92;81.09;95493.75;5136233;27;40969;-87
2023/10/20 11:31:15;;;;;;;7.53;6.53;;;;;;;18.94;79.83;95472.09;5118899;27;41741;-86
2023/10/20 11:33:43;;;;;;;8.60;7.57;;;;;;;19.16;79.37;95485.78;5119564;27;40943;-87
2023/10/20 11:36:12;;;;;;;8.37;7.50;;;;;;;19.48;77.71;95465.59;5154870;27;40308;-85
2023/10/20 11:38:40;;;;;;;10.70;8.00;;;;;;;20.94;77.54;95485.78;5119799;27;41756;-87
2023/10/20 11:41:07;;;;;;;7.50;6.80;;;;;;;21.94;73.25;95476.00;5118762;27;42901;-85
2023/10/20 11:43:37;;;;;;;8.30;7.40;;;;;;;22.08;69.40;95490.78;5136111;27;41229;-87
2023/10/20 11:46:05;;;;;;;7.40;6.70;;;;;;;22.02;66.98;95503.34;5118673;27;39870;-87
2023/10/20 11:48:33;;;;;;;8.93;7.53;;;;;;;21.94;64.68;95521.81;5118878;27;41457;-86
2023/10/20 11:51:00;;;;;;;8.53;7.40;;;;;;;22.03;64.17;95536.50;5136298;27;42739;-85
2023/10/20 11:53:29;;;;;;;8.13;7.10;;;;;;;22.72;64.99;95534.16;5135481;27;42206;-87
2023/10/20 11:55:57;;;;;;;8.60;7.47;;;;;;;23.02;61.37;95561.47;5135430;27;39208;-87
2023/10/20 11:58:24;;;;;;;7.00;6.30;;;;;;;22.98;62.15;95541.47;5118387;27;41931;-88
2023/10/20 12:00:52;;;;;;;7.77;6.97;;;;;;;22.87;61.76;95558.63;5118318;27;41370;-86
2023/10/20 12:03:19;;;;;;;7.20;6.40;;;;;;;22.60;63.44;95541.56;5118799;27;41376;-88
2023/10/20 12:05:47;;;;;;;8.43;7.40;;;;;;;22.26;63.17;95552.44;5135189;27;40220;-87
2023/10/20 12:08:15;;;;;;;7.57;6.73;;;;;;;22.00;63.98;95558.59;5118269;27;40867;-83
2023/10/20 12:10:44;;;;;;;7.67;6.47;;;;;;;21.71;64.92;95549.75;5118314;27;43871;-84
2023/10/20 12:13:12;;;;;;;7.23;6.33;;;;;;;21.33;66.58;95526.28;5135611;27;40909;-85
2023/10/20 12:15:39;;;;;;;7.90;7.10;;;;;;;21.34;67.31;95538.66;5136357;27;39939;-82
2023/10/20 12:18:07;;;;;;;8.30;6.87;;;;;;;21.26;68.08;95531.84;5135760;27;40317;-82
2023/10/20 12:20:34;;;;;;;7.53;6.73;;;;;;;21.12;68.63;95515.16;5136020;27;41731;-84
2023/10/20 12:23:03;;;;;;;7.73;7.03;;;;;;;21.24;67.84;95530.44;5118805;27;43760;-86
2023/10/20 12:25:30;;;;;;;7.23;6.23;;;;;;;21.36;68.27;95537.38;5119313;27;39102;-84
2023/10/20 12:28:00;;;;;;;8.33;6.83;;;;;;;21.45;68.62;95540.47;5118162;27;42065;-84
2023/10/20 12:30:27;;;;;;;8.17;6.83;;;;;;;21.38;67.88;95529.06;5118988;27;44438;-84
2023/10/20 12:32:55;;;;;;;7.60;6.90;;;;;;;21.65;68.20;95566.88;5118795;27;41265;-85
2023/10/20 12:35:22;;;;;;;8.10;7.30;;;;;;;21.47;66.86;95571.47;5136360;27;41350;-83
2023/10/20 12:37:50;;;;;;;7.20;6.50;;;;;;;21.22;66.78;95564.84;5118458;27;40358;-87
2023/10/20 12:40:18;;;;;;;8.17;7.00;;;;;;;21.14;67.35;95584.88;5118030;27;43201;-83
2023/10/20 12:42:45;;;;;;;7.27;6.60;;;;;;;20.99;67.96;95574.63;5116562;27;40949;-86
2023/10/20 12:45:14;;;;;;;8.67;7.80;;;;;;;20.88;68.07;95564.75;5135058;27;39083;-86
2023/10/20 12:47:42;;;;;;;8.00;7.20;;;;;;;20.95;69.32;95573.47;5134060;27;40829;-83
2023/10/20 12:50:10;;;;;;;7.13;6.43;;;;;;;20.89;69.46;95579.84;5117366;27;42685;-83
2023/10/20 12:52:37;;;;;;;7.27;6.30;;;;;;;20.71;69.89;95572.75;5133695;27;42237;-86
2023/10/20 12:55:06;;;;;;;9.10;6.87;;;;;;;20.42;70.09;95528.91;5117348;27;39183;-83
2023/10/20 12:57:33;;;;;;;7.67;6.90;;;;;;;20.32;70.87;95520.59;5116407;27;40938;-87
2023/10/20 13:00:01;;;;;;;8.30;7.50;;;;;;;20.32;71.07;95536.72;5134359;27;42626;-84
2023/10/20 13:02:30;;;;;;;7.30;6.60;;;;;;;20.43;71.10;95568.16;5134001;27;41391;-84
2023/10/20 13:04:57;;;;;;;8.10;6.77;;;;;;;20.37;71.40;95579.88;5116793;27;40095;-85
2023/10/20 13:07:25;;;;;;;7.47;6.60;;;;;;;20.32;71.84;95574.34;5134186;27;42093;-86
2023/10/20 13:09:53;;;;;;;7.17;6.43;;;;;;;20.46;71.67;95590.25;5134344;27;41944;-85
2023/10/20 13:12:22;;;;;;;7.63;6.87;;;;;;;20.58;71.04;95588.34;5134611;27;41453;-86
2023/10/20 13:14:49;;;;;;;8.13;6.80;;;;;;;20.51;71.28;95576.91;5135191;27;38644;-84
2023/10/20 13:17:17;;;;;;;9.30;7.33;;;;;;;20.40;71.28;95576.69;5135535;27;40886;-87
2023/10/20 13:19:46;;;;;;;8.47;6.23;;;;;;;20.32;71.02;95582.41;5118286;27;41818;-90
2023/10/20 13:22:13;;;;;;;8.70;6.63;;;;;;;19.99;71.29;95541.94;5118601;27;43921;-90
2023/10/20 13:24:41;;;;;;;6.83;5.77;;;;;;;20.22;71.97;95587.56;5118426;27;39113;-92
2023/10/20 13:27:09;;;;;;;7.40;6.10;;;;;;;20.12;72.29;95576.59;5116897;27;41858;-90
2023/10/20 13:29:37;;;;;;;8.47;6.90;;;;;;;20.15;72.21;95576.16;5116766;27;44413;-90
2023/10/20 13:32:06;;;;;;;7.17;6.47;;;;;;;20.35;72.52;95606.16;5134260;27;42842;-87
2023/10/20 13:34:34;;;;;;;6.03;5.47;;;;;;;20.25;72.36;95584.41;5117179;27;39000;-86
2023/10/20 13:37:03;;;;;;;7.43;5.97;;;;;;;20.37;72.20;95601.38;5134074;27;40989;-90
2023/10/20 13:39:31;;;;;;;5.77;4.83;;;;;;;20.35;72.19;95600.78;5117170;27;43440;-91
2023/10/20 13:41:59;;;;;;;5.50;5.00;;;;;;;20.29;72.43;95606.25;5116482;27;41906;-86
2023/10/20 13:44:26;;;;;;;6.77;5.13;;;;;;;20.30;72.44;95589.06;5116903;27;38928;-87
2023/10/20 13:46:54;;;;;;;6.00;5.17;;;;;;;20.32;73.00;95595.84;5152864;27;41884;-89
2023/10/20 13:49:21;;;;;;;5.27;4.77;;;;;;;20.41;72.88;95615.94;5151441;27;42536;-90
2023/10/20 13:51:49;;;;;;;7.07;4.80;;;;;;;20.19;73.17;95601.47;5116986;27;41836;-89
2023/10/20 13:54:18;;;;;;;4.60;4.10;;;;;;;20.23;73.15;95609.88;5137757;27;39215;-90
2023/10/20 13:56:46;;;;;;;4.27;3.90;;;;;;;20.28;73.36;95615.34;5137107;27;42398;-87
2023/10/20 13:59:15;;;;;;;4.53;4.13;;;;;;;20.38;73.74;95631.75;5155708;27;43372;-89
2023/10/20 14:01:43;;;;;;;5.77;4.17;;;;;;;20.49;73.00;95638.97;5119977;27;41507;-90
2023/10/20 14:04:11;;;;;;;4.20;3.80;;;;;;;20.66;72.58;95656.00;5126589;27;38867;-89
2023/10/20 14:06:38;;;;;;;4.17;3.60;;;;;;;20.65;72.51;95645.47;5126416;27;40743;-88
2023/10/20 14:09:08;;;;;;;3.30;3.00;;;;;;;20.74;72.12;95636.00;5122523;27;41989;-88
2023/10/20 14:11:37;;;;;;;3.37;3.07;;;;;;;20.93;71.94;95642.81;5120544;27;42193;-88
2023/10/20 14:14:05;;;;;;;4.67;3.20;;;;;;;20.88;71.55;95615.84;5137950;27;40629;-91
2023/10/20 14:16:33;;;;;;;2.60;2.40;;;;;;;21.04;69.79;95636.59;5120790;27;42109;-89
2023/10/20 14:19:01;;;;;;;2.60;2.40;;;;;;;21.19;69.49;95654.13;5120957;27;42006;-84
2023/10/20 14:21:28;;;;;;;4.63;2.40;;;;;;;21.32;69.21;95656.53;5120801;27;41164;-86
2023/10/20 14:23:56;;;;;;;2.60;2.40;;;;;;;21.27;68.40;95656.41;5120707;27;38898;-86
2023/10/20 14:26:23;;;;;;;2.10;1.90;;;;;;;21.32;69.28;95667.28;5138061;27;41637;-86
2023/10/20 14:28:52;;;;;;;1.90;1.80;;;;;;;21.28;69.05;95658.03;5155656;27;42707;-83
2023/10/20 14:31:20;;;;;;;1.63;1.47;;;;;;;21.27;69.34;95656.41;5137399;27;42446;-87
2023/10/20 14:33:48;;;;;;;2.10;1.90;;;;;;;21.21;69.13;95665.47;5120720;27;39450;-85
2023/10/20 14:36:18;;;;;;;1.90;1.80;;;;;;;21.14;68.89;95673.66;5120072;27;40695;-85
2023/10/20 14:38:46;;;;;;;3.60;1.67;;;;;;;21.07;69.54;95668.41;5120501;27;42790;-88
2023/10/20 14:41:13;;;;;;;1.60;1.50;;;;;;;20.94;69.33;95676.75;5120629;27;41370;-84
2023/10/20 14:43:41;;;;;;;1.90;1.80;;;;;;;20.80;69.67;95654.69;5156142;27;40060;-89
2023/10/20 14:46:10;;;;;;;2.37;1.90;;;;;;;20.87;70.02;95686.84;5119968;27;42831;-84
2023/10/20 14:48:37;;;;;;;2.43;1.73;;;;;;;20.77;70.12;95695.47;5119423;27;41792;-84
2023/10/20 14:51:06;;;;;;;2.00;1.80;;;;;;;20.65;70.81;95696.56;5136055;27;42183;-83
2023/10/20 14:53:35;;;;;;;1.60;1.50;;;;;;;20.51;70.99;95681.75;5136032;27;40302;-88
2023/10/20 14:56:04;;;;;;;1.70;1.33;;;;;;;20.48;71.61;95691.09;5136444;27;41898;-88
2023/10/20 14:58:31;;;;;;;1.73;1.63;;;;;;;20.24;71.67;95674.13;5118710;27;43031;-88
2023/10/20 15:01:00;;;;;;;1.70;1.60;;;;;;;20.19;71.93;95687.44;5119102;27;41361;-90
2023/10/20 15:03:30;;;;;;;2.50;1.80;;;;;;;20.12;72.33;95691.31;5118440;27;39923;-85
2023/10/20 15:05:57;;;;;;;2.87;1.77;;;;;;;20.00;72.60;95694.78;5118888;27;42453;-87
2023/10/20 15:08:25;;;;;;;1.70;1.60;;;;;;;19.95;72.93;95694.66;5118561;27;44306;-87
2023/10/20 15:10:53;;;;;;;1.27;1.27;;;;;;;19.83;72.99;95693.00;5118517;27;42672;-83
2023/10/20 15:13:21;;;;;;;1.57;1.47;;;;;;;19.87;73.41;95715.66;5107770;27;39967;-83
2023/10/20 15:15:48;;;;;;;1.60;1.50;;;;;;;19.77;73.75;95734.22;5108720;27;42733;-83
2023/10/20 15:18:18;;;;;;;1.60;1.50;;;;;;;19.62;73.96;95718.53;5110152;27;43069;-83
2023/10/20 15:20:47;;;;;;;1.60;1.50;;;;;;;19.57;74.00;95721.06;5145394;27;42675;-83
2023/10/20 15:23:14;;;;;;;3.23;1.60;;;;;;;19.51;74.09;95733.53;5096654;27;38499;-83
2023/10/20 15:25:42;;;;;;;1.50;1.40;;;;;;;19.54;74.31;95741.13;5130032;27;41777;-82
2023/10/20 15:28:09;;;;;;;1.80;1.60;;;;;;;19.47;74.76;95748.44;5120708;27;43402;-83
2023/10/20 15:30:38;;;;;;;1.90;1.60;;;;;;;19.43;74.90;95744.56;5121520;27;42165;-83
2023/10/20 15:33:06;;;;;;;1.70;1.60;;;;;;;19.36;75.03;95746.50;5100241;27;41513;-84
2023/10/20 15:35:34;;;;;;;2.10;1.90;;;;;;;19.36;74.94;95766.13;5113807;27;42230;-82
2023/10/20 15:38:03;;;;;;;1.97;1.77;;;;;;;19.11;75.07;95738.56;5107127;27;44615;-83
2023/10/20 15:40:31;;;;;;;1.80;1.63;;;;;;;19.23;74.86;95758.22;5129536;27;42985;-84
2023/10/20 15:42:58;;;;;;;3.47;1.53;;;;;;;19.13;75.47;95752.59;5123601;27;39975;-83
2023/10/20 15:45:26;;;;;;;2.10;1.90;;;;;;;18.92;76.32;95751.16;5127157;27;44300;-84
2023/10/20 15:47:53;;;;;;;1.77;1.67;;;;;;;18.92;77.22;95782.50;5124504;27;42754;-83
2023/10/20 15:50:21;;;;;;;3.03;1.90;;;;;;;18.76;77.79;95773.22;5108299;27;43046;-83
2023/10/20 15:52:48;;;;;;;1.90;1.80;;;;;;;18.74;78.22;95780.66;5114791;27;39876;-84
2023/10/20 15:55:17;;;;;;;1.57;1.43;;;;;;;18.64;78.58;95789.22;5103879;27;40810;-83
2023/10/20 15:57:45;;;;;;;2.10;1.90;;;;;;;18.57;79.55;95788.41;5112147;27;42114;-83
2023/10/20 16:00:14;;;;;;;2.83;1.90;;;;;;;18.40;80.14;95767.78;5107335;27;42602;-83
2023/10/20 16:02:41;;;;;;;2.27;2.07;;;;;;;18.39;80.82;95784.88;5105236;27;38942;-83
2023/10/20 16:05:09;;;;;;;2.13;1.57;;;;;;;18.33;81.89;95781.22;5101471;27;40730;-82
2023/10/20 16:07:37;;;;;;;2.20;2.00;;;;;;;18.25;82.22;95790.34;5118994;27;43510;-83
2023/10/20 16:10:06;;;;;;;1.90;1.63;;;;;;;18.17;83.37;95816.59;5125269;27;42143;-84
2023/10/20 16:12:35;;;;;;;2.27;1.97;;;;;;;18.02;84.38;95818.75;5125857;27;39944;-84
2023/10/20 16:15:05;;;;;;;2.33;1.70;;;;;;;17.75;84.71;95785.97;5127703;27;41894;-85
2023/10/20 16:17:33;;;;;;;3.10;1.73;;;;;;;18.01;85.36;95839.34;5113595;27;43791;-83
2023/10/20 16:20:02;;;;;;;1.37;1.27;;;;;;;17.87;85.23;95843.13;5107038;27;42110;-83
2023/10/20 16:22:30;;;;;;;1.20;1.13;;;;;;;17.86;85.49;95863.72;5129917;27;40299;-84
2023/10/20 16:24:58;;;;;;;1.57;1.10;;;;;;;17.76;84.89;95851.84;5119186;27;42662;-83
2023/10/20 16:27:26;;;;;;;1.20;1.10;;;;;;;17.78;84.49;95865.84;5101747;27;43240;-84
2023/10/20 16:29:55;;;;;;;1.00;0.70;;;;;;;17.70;84.70;95852.69;5114356;27;42071;-83
2023/10/20 16:32:23;;;;;;;0.70;0.70;;;;;;;17.61;83.87;95852.09;5107439;27;40379;-83
2023/10/20 16:34:51;;;;;;;1.07;0.97;;;;;;;17.70;83.68;95864.22;5109737;27;41114;-83
2023/10/20 16:37:19;;;;;;;0.70;0.70;;;;;;;17.66;82.54;95873.72;5098423;27;43508;-83
2023/10/20 16:39:46;;;;;;;1.07;0.70;;;;;;;17.65;82.37;95876.59;5135177;27;42300;-84
2023/10/20 16:42:14;;;;;;;0.87;0.60;;;;;;;17.49;82.52;95851.94;5101843;27;41824;-83
2023/10/20 16:44:41;;;;;;;1.07;0.73;;;;;;;17.62;82.17;95877.81;5094880;27;40920;-84
2023/10/20 16:47:10;;;;;;;0.60;0.60;;;;;;;17.59;81.82;95895.09;5145856;27;43899;-84
2023/10/20 16:49:37;;;;;;;0.70;0.70;;;;;;;17.57;82.21;95902.53;5151021;27;42240;-84
2023/10/20 16:52:06;;;;;;;1.00;0.70;;;;;;;17.50;82.03;95895.56;5129581;27;40789;-82
2023/10/20 16:54:34;;;;;;;0.80;0.70;;;;;;;17.53;82.29;95909.34;5149522;27;42035;-84
2023/10/20 16:57:02;;;;;;;0.60;0.60;;;;;;;17.51;82.14;95922.09;5126872;27;43575;-84
2023/10/20 16:59:29;;;;;;;1.40;1.30;;;;;;;17.44;82.02;95907.09;5112083;27;42332;-84
2023/10/20 17:01:57;;;;;;;0.53;0.53;;;;;;;17.40;81.68;95900.53;5112741;27;39069;-84
2023/10/20 17:04:25;;;;;;;2.47;0.70;;;;;;;17.41;81.56;95921.72;5145188;27;41806;-83
2023/10/20 17:06:53;;;;;;;0.50;0.50;;;;;;;17.50;81.40;95938.38;5145516;27;42913;-84
2023/10/20 17:09:20;;;;;;;0.97;0.70;;;;;;;17.52;81.33;95949.69;5094987;27;42620;-84
2023/10/20 17:11:48;;;;;;;12.97;7.13;;;;;;;17.48;81.30;95949.28;5141733;27;40162;-83
2023/10/20 17:14:15;;;;;;;4.60;3.27;;;;;;;17.44;81.52;95940.00;5113320;27;40907;-83
2023/10/20 17:16:43;;;;;;;1.60;1.23;;;;;;;17.41;81.37;95944.97;5136289;27;42881;-84
2023/10/20 17:19:11;;;;;;;1.30;1.10;;;;;;;17.38;81.24;95940.88;5096144;27;41995;-83
2023/10/20 17:21:40;;;;;;;1.57;1.47;;;;;;;17.35;81.28;95951.97;5122239;27;39867;-84
2023/10/20 17:24:09;;;;;;;0.80;0.80;;;;;;;17.35;81.18;95962.69;5116197;27;42691;-84
2023/10/20 17:26:38;;;;;;;0.80;0.80;;;;;;;17.23;81.05;95949.13;5147715;27;42667;-83
2023/10/20 17:29:06;;;;;;;0.87;0.80;;;;;;;17.22;80.84;95968.03;5099571;27;41298;-83
2023/10/20 17:31:34;;;;;;;0.73;0.50;;;;;;;17.30;80.92;95997.28;5109457;27;38934;-85
2023/10/20 17:34:02;;;;;;;0.60;0.60;;;;;;;17.29;80.49;96000.97;5098591;27;41084;-82
2023/10/20 17:36:29;;;;;;;0.60;0.60;;;;;;;17.29;80.54;96006.31;5132682;27;41783;-84
2023/10/20 17:38:59;;;;;;;2.13;0.70;;;;;;;16.86;80.99;95937.22;5124738;27;41181;-84
2023/10/20 17:41:27;;;;;;;0.83;0.73;;;;;;;17.12;80.40;95984.50;5130836;27;39153;-85
2023/10/20 17:43:55;;;;;;;1.47;0.70;;;;;;;17.22;80.48;95992.13;5117804;27;40560;-84
2023/10/20 17:46:23;;;;;;;0.67;0.63;;;;;;;17.09;80.41;95976.91;5135187;27;42038;-84
2023/10/20 17:48:51;;;;;;;0.67;0.63;;;;;;;17.20;80.35;96002.19;5102883;27;42708;-85
2023/10/20 17:51:19;;;;;;;0.60;0.60;;;;;;;17.12;80.14;96005.09;5117720;27;38980;-84
2023/10/20 17:53:46;;;;;;;0.70;0.60;;;;;;;17.05;80.23;96004.28;5117918;27;42384;-84
2023/10/20 17:56:15;;;;;;;0.60;0.60;;;;;;;17.11;80.44;96019.47;5118133;27;42762;-84
2023/10/20 17:58:42;;;;;;;0.67;0.67;;;;;;;16.99;80.58;96005.91;5136444;27;43566;-84
2023/10/20 18:01:11;;;;;;;2.33;0.80;;;;;;;16.91;80.95;96007.97;5118677;27;39984;-84
2023/10/20 18:03:40;;;;;;;0.80;0.80;;;;;;;16.93;81.03;96033.47;5154324;27;42779;-84
2023/10/20 18:06:09;;;;;;;4.67;1.93;;;;;;;16.86;81.43;96044.13;5134457;27;43505;-84
2023/10/20 18:08:38;;;;;;;2.83;1.90;;;;;;;16.74;81.60;96036.91;5134794;27;42704;-84
2023/10/20 18:11:06;;;;;;;1.80;1.60;;;;;;;16.74;81.57;96045.75;5152725;27;41684;-84
2023/10/20 18:13:39;;;;;;;1.37;1.27;;;;;;;16.67;82.06;96036.91;5136857;27;42163;-84
2023/10/20 18:16:08;;;;;;;0.80;0.80;;;;;;;16.63;82.35;96033.00;5155547;27;42584;-82
2023/10/20 18:18:38;;;;;;;1.83;1.27;;;;;;;16.55;82.10;96014.47;5136284;27;42321;-82
2023/10/20 18:21:06;;;;;;;1.23;1.00;;;;;;;16.58;82.56;96019.38;5154634;27;39865;-82
2023/10/20 18:23:34;;;;;;;0.80;0.80;;;;;;;16.53;82.32;96043.22;5136563;27;40625;-81
2023/10/20 18:26:02;;;;;;;0.63;0.63;;;;;;;16.44;82.46;96053.25;5135633;27;44308;-83
2023/10/20 18:28:30;;;;;;;0.97;0.80;;;;;;;16.35;82.69;96030.41;5136193;27;42251;-83
2023/10/20 18:30:59;;;;;;;0.83;0.67;;;;;;;16.37;82.71;96046.25;5136134;27;40475;-82
2023/10/20 18:33:27;;;;;;;1.20;1.00;;;;;;;16.19;82.91;96029.97;5136459;27;40788;-83
2023/10/20 18:35:55;;;;;;;0.80;0.80;;;;;;;16.09;83.68;96020.47;5119892;27;43328;-82
2023/10/20 18:38:22;;;;;;;2.10;0.90;;;;;;;16.14;83.78;96039.41;5135948;27;42895;-83
2023/10/20 18:40:50;;;;;;;0.80;0.80;;;;;;;15.98;83.66;96031.72;5135629;27;39769;-83
2023/10/20 18:43:18;;;;;;;1.07;0.90;;;;;;;15.92;84.14;96021.84;5116834;27;42121;-84
2023/10/20 18:45:52;;;;;;;0.80;0.80;;;;;;;15.98;85.29;96054.91;5116879;27;43604;-83
2023/10/20 18:48:22;;;;;;;1.93;1.00;;;;;;;15.90;86.58;96057.75;5117370;27;42028;-83
2023/10/20 18:50:50;;;;;;;0.80;0.80;;;;;;;15.90;87.88;96068.44;5117405;27;38955;-83
2023/10/20 18:53:18;;;;;;;0.90;0.80;;;;;;;15.82;87.52;96061.41;5153362;27;42007;-83
2023/10/20 18:55:45;;;;;;;0.90;0.90;;;;;;;15.88;89.22;96067.78;5117036;27;42414;-83
2023/10/20 18:58:12;;;;;;;1.23;0.77;;;;;;;15.91;90.04;96068.25;5117115;27;40996;-83
2023/10/20 19:00:40;;;;;;;1.13;0.80;;;;;;;15.89;90.29;96062.25;5154609;27;40004;-84
2023/10/20 19:03:08;;;;;;;1.10;0.90;;;;;;;15.89;90.46;96064.09;5118097;27;42789;-83
2023/10/20 19:05:38;;;;;;;1.30;0.93;;;;;;;15.82;91.16;96072.09;5134318;27;42703;-82
2023/10/20 19:08:06;;;;;;;2.30;0.90;;;;;;;15.81;90.28;96075.78;5134248;27;43309;-83
2023/10/20 19:10:34;;;;;;;0.90;0.90;;;;;;;15.82;90.74;96079.28;5133477;27;41403;-82
2023/10/20 19:13:01;;;;;;;0.93;0.70;;;;;;;15.69;90.22;96066.66;5136382;27;41933;-82
2023/10/20 19:15:29;;;;;;;1.23;0.73;;;;;;;15.72;90.04;96067.09;5118341;27;44146;-83
2023/10/20 19:17:56;;;;;;;0.70;0.70;;;;;;;15.86;89.20;96070.66;5135643;27;42253;-82
2023/10/20 19:20:24;;;;;;;1.33;0.80;;;;;;;15.85;88.97;96061.00;5135140;27;40901;-82
2023/10/20 19:22:54;;;;;;;0.50;0.50;;;;;;;15.75;88.24;96060.53;5136332;27;42724;-82
2023/10/20 19:25:22;;;;;;;1.10;0.70;;;;;;;15.83;88.07;96079.03;5118341;27;43493;-82
2023/10/20 19:27:50;;;;;;;0.87;0.77;;;;;;;15.76;88.05;96075.53;5118189;27;42988;-83
2023/10/20 19:30:17;;;;;;;1.03;0.70;;;;;;;15.77;87.96;96090.53;5153422;27;40883;-82
2023/10/20 19:32:45;;;;;;;0.50;0.50;;;;;;;15.72;87.75;96092.94;5135422;27;43033;-83
2023/10/20 19:35:13;;;;;;;0.70;0.70;;;;;;;15.59;88.02;96087.50;5135010;27;44493;-83
2023/10/20 19:37:41;;;;;;;0.93;0.70;;;;;;;15.63;88.16;96099.44;5153808;27;41288;-83
2023/10/20 19:40:10;;;;;;;0.63;0.63;;;;;;;15.58;88.08;96102.69;5133826;27;39865;-84
2023/10/20 19:42:38;;;;;;;0.80;0.80;;;;;;;15.57;87.93;96108.25;5116516;27;42269;-82
2023/10/20 19:45:10;;;;;;;0.80;0.80;;;;;;;15.45;88.17;96095.38;5116227;27;41901;-83
2023/10/20 19:47:37;;;;;;;0.80;0.77;;;;;;;15.42;87.90;96087.78;5132099;27;43238;-83
2023/10/20 19:50:06;;;;;;;1.10;1.00;;;;;;;15.52;87.91;96118.63;5132791;27;39639;-83
2023/10/20 19:52:35;;;;;;;1.00;1.00;;;;;;;15.48;87.86;96122.69;5152072;27;41883;-83
2023/10/20 19:55:02;;;;;;;1.20;1.10;;;;;;;15.31;87.99;96101.66;5133209;27;44454;-83
2023/10/20 19:57:31;;;;;;;1.30;1.20;;;;;;;15.33;87.89;96118.25;5154880;27;42282;-83
2023/10/20 19:59:59;;;;;;;1.00;0.90;;;;;;;15.33;88.36;96114.78;5118205;27;40282;-85
2023/10/20 20:02:27;;;;;;;1.83;0.80;;;;;;;15.37;88.18;96127.53;5133240;27;43288;-83
2023/10/20 20:04:54;;;;;;;0.73;0.73;;;;;;;15.24;87.70;96114.06;5133388;27;43915;-82
2023/10/20 20:07:23;;;;;;;0.70;0.60;;;;;;;15.33;87.68;96136.13;5115754;27;43039;-81
2023/10/20 20:09:50;;;;;;;0.80;0.63;;;;;;;15.19;87.42;96108.53;5133185;27;40737;-84
2023/10/20 20:12:17;;;;;;;0.90;0.83;;;;;;;15.15;87.67;96107.25;5116579;27;42870;-84
2023/10/20 20:14:46;;;;;;;0.97;0.90;;;;;;;15.21;87.53;96122.44;5118136;27;42041;-83
2023/10/20 20:17:14;;;;;;;0.73;0.67;;;;;;;15.09;87.43;96108.00;5133645;27;43296;-84
2023/10/20 20:19:41;;;;;;;0.67;0.67;;;;;;;15.13;87.65;96119.94;5134610;27;40246;-84
2023/10/20 20:22:09;;;;;;;1.50;0.53;;;;;;;15.09;87.53;96116.81;5116412;27;43045;-83
2023/10/20 20:24:36;;;;;;;1.10;1.00;;;;;;;15.05;87.46;96123.56;5117889;27;43538;-84
2023/10/20 20:27:04;;;;;;;0.77;0.77;;;;;;;14.92;87.57;96117.28;5133801;27;43457;-83
2023/10/20 20:29:32;;;;;;;1.20;0.80;;;;;;;14.83;87.41;96107.75;5134689;27;40645;-83
2023/10/20 20:32:01;;;;;;;0.90;0.87;;;;;;;14.81;87.63;96115.94;5132966;27;41397;-84
2023/10/20 20:34:28;;;;;;;1.17;0.70;;;;;;;14.85;87.47;96127.00;5097850;27;42468;-83
2023/10/20 20:36:55;;;;;;;1.10;1.00;;;;;;;14.78;87.71;96132.28;5145098;27;41859;-83
2023/10/20 20:39:23;;;;;;;1.10;0.80;;;;;;;14.71;87.91;96120.75;5116567;27;38911;-84
2023/10/20 20:41:51;;;;;;;0.80;0.77;;;;;;;14.57;88.22;96114.44;5115765;27;41681;-83
2023/10/20 20:44:19;;;;;;;0.70;0.70;;;;;;;14.59;88.08;96128.38;5133028;27;42629;-83
